sensor_id;sensor_type;location;lat;lon;timestamp;temperature;humidity
11142;DHT22;5625;50.122;19.864;2023-03-01T00:01:20;-0.90;84.30
11142;DHT22;5625;50.122;19.864;2023-03-01T00:03:49;-0.90;84.40
11142;DHT22;5625;50.122;19.864;2023-03-01T00:06:18;-0.90;84.60
11142;DHT22;5625;50.122;19.864;2023-03-01T00:08:48;-0.90;85.30
11142;DHT22;5625;50.122;19.864;2023-03-01T00:11:18;-0.90;84.30
11142;DHT22;5625;50.122;19.864;2023-03-01T00:13:48;-0.90;83.80
11142;DHT22;5625;50.122;19.864;2023-03-01T00:16:18;-0.90;82.90
11142;DHT22;5625;50.122;19.864;2023-03-01T00:18:47;-0.90;83.30
11142;DHT22;5625;50.122;19.864;2023-03-01T00:21:15;-0.90;83.60
11142;DHT22;5625;50.122;19.864;2023-03-01T00:23:43;-0.90;85.30
11142;DHT22;5625;50.122;19.864;2023-03-01T00:26:13;-0.90;88.30
11142;DHT22;5625;50.122;19.864;2023-03-01T00:28:42;-1.00;90.20
11142;DHT22;5625;50.122;19.864;2023-03-01T00:31:12;-1.00;91.70
11142;DHT22;5625;50.122;19.864;2023-03-01T00:33:40;-1.00;93.20
11142;DHT22;5625;50.122;19.864;2023-03-01T00:36:10;-1.00;93.90
11142;DHT22;5625;50.122;19.864;2023-03-01T00:38:40;-1.10;94.70
11142;DHT22;5625;50.122;19.864;2023-03-01T00:41:13;-1.10;95.10
11142;DHT22;5625;50.122;19.864;2023-03-01T00:43:42;-1.10;94.70
11142;DHT22;5625;50.122;19.864;2023-03-01T00:46:14;-1.10;94.90
11142;DHT22;5625;50.122;19.864;2023-03-01T00:48:42;-1.10;94.80
11142;DHT22;5625;50.122;19.864;2023-03-01T00:51:12;-1.20;95.90
11142;DHT22;5625;50.122;19.864;2023-03-01T00:53:41;-1.20;97.50
11142;DHT22;5625;50.122;19.864;2023-03-01T00:56:11;-1.30;99.90
11142;DHT22;5625;50.122;19.864;2023-03-01T00:58:41;-1.30;99.90
11142;DHT22;5625;50.122;19.864;2023-03-01T01:01:14;-1.40;99.90
11142;DHT22;5625;50.122;19.864;2023-03-01T01:03:46;-1.30;99.90
11142;DHT22;5625;50.122;19.864;2023-03-01T01:06:16;-1.40;99.90
11142;DHT22;5625;50.122;19.864;2023-03-01T01:08:45;-1.40;99.90
11142;DHT22;5625;50.122;19.864;2023-03-01T01:11:13;-1.40;99.90
11142;DHT22;5625;50.122;19.864;2023-03-01T01:13:44;-1.40;99.90
11142;DHT22;5625;50.122;19.864;2023-03-01T01:16:12;-1.40;99.90
11142;DHT22;5625;50.122;19.864;2023-03-01T01:18:41;-1.40;99.90
11142;DHT22;5625;50.122;19.864;2023-03-01T01:21:10;-1.40;99.90
11142;DHT22;5625;50.122;19.864;2023-03-01T01:23:39;-1.40;99.90
11142;DHT22;5625;50.122;19.864;2023-03-01T01:26:09;-1.40;99.90
11142;DHT22;5625;50.122;19.864;2023-03-01T01:28:37;-1.50;99.90
11142;DHT22;5625;50.122;19.864;2023-03-01T01:31:07;-1.50;99.90
11142;DHT22;5625;50.122;19.864;2023-03-01T01:33:35;-1.50;99.90
11142;DHT22;5625;50.122;19.864;2023-03-01T01:36:04;-1.50;99.90
11142;DHT22;5625;50.122;19.864;2023-03-01T01:38:32;-1.50;99.90
11142;DHT22;5625;50.122;19.864;2023-03-01T01:41:01;-1.50;99.90
11142;DHT22;5625;50.122;19.864;2023-03-01T01:43:31;-1.50;99.90
11142;DHT22;5625;50.122;19.864;2023-03-01T01:46:02;-1.60;99.90
11142;DHT22;5625;50.122;19.864;2023-03-01T01:48:38;-1.50;99.90
11142;DHT22;5625;50.122;19.864;2023-03-01T01:51:11;-1.60;99.90
11142;DHT22;5625;50.122;19.864;2023-03-01T01:53:41;-1.60;99.90
11142;DHT22;5625;50.122;19.864;2023-03-01T01:56:11;-1.60;99.90
11142;DHT22;5625;50.122;19.864;2023-03-01T01:58:42;-1.60;99.90
11142;DHT22;5625;50.122;19.864;2023-03-01T02:01:11;-1.70;99.90
11142;DHT22;5625;50.122;19.864;2023-03-01T02:03:42;-1.70;99.90
11142;DHT22;5625;50.122;19.864;2023-03-01T02:06:15;-1.70;99.90
11142;DHT22;5625;50.122;19.864;2023-03-01T02:08:47;-1.70;99.90
11142;DHT22;5625;50.122;19.864;2023-03-01T02:11:17;-1.70;99.90
11142;DHT22;5625;50.122;19.864;2023-03-01T02:13:47;-1.70;99.90
11142;DHT22;5625;50.122;19.864;2023-03-01T02:16:16;-1.70;99.90
11142;DHT22;5625;50.122;19.864;2023-03-01T02:18:46;-1.70;99.90
11142;DHT22;5625;50.122;19.864;2023-03-01T02:21:27;-1.80;99.90
11142;DHT22;5625;50.122;19.864;2023-03-01T02:24:02;-1.80;99.90
11142;DHT22;5625;50.122;19.864;2023-03-01T02:26:38;-1.80;99.40
11142;DHT22;5625;50.122;19.864;2023-03-01T02:29:09;-1.80;98.60
11142;DHT22;5625;50.122;19.864;2023-03-01T02:31:37;-1.80;98.90
11142;DHT22;5625;50.122;19.864;2023-03-01T02:34:16;-1.80;99.90
11142;DHT22;5625;50.122;19.864;2023-03-01T02:36:47;-1.90;99.90
11142;DHT22;5625;50.122;19.864;2023-03-01T02:39:23;-1.90;99.90
11142;DHT22;5625;50.122;19.864;2023-03-01T02:41:54;-1.90;99.70
11142;DHT22;5625;50.122;19.864;2023-03-01T02:44:25;-1.90;99.40
11142;DHT22;5625;50.122;19.864;2023-03-01T02:46:55;-1.90;99.90
11142;DHT22;5625;50.122;19.864;2023-03-01T02:49:26;-2.00;99.90
11142;DHT22;5625;50.122;19.864;2023-03-01T02:52:23;-1.90;99.90
11142;DHT22;5625;50.122;19.864;2023-03-01T02:54:59;-2.00;99.90
11142;DHT22;5625;50.122;19.864;2023-03-01T02:57:29;-2.00;99.90
11142;DHT22;5625;50.122;19.864;2023-03-01T03:00:03;-2.00;99.90
11142;DHT22;5625;50.122;19.864;2023-03-01T03:02:35;-2.00;99.90
11142;DHT22;5625;50.122;19.864;2023-03-01T03:05:08;-2.10;99.90
11142;DHT22;5625;50.122;19.864;2023-03-01T03:07:39;-2.10;99.90
11142;DHT22;5625;50.122;19.864;2023-03-01T03:10:10;-2.10;99.90
11142;DHT22;5625;50.122;19.864;2023-03-01T03:12:39;-2.10;99.90
11142;DHT22;5625;50.122;19.864;2023-03-01T03:15:10;-2.10;99.90
11142;DHT22;5625;50.122;19.864;2023-03-01T03:17:42;-2.10;99.90
11142;DHT22;5625;50.122;19.864;2023-03-01T03:20:15;-2.20;99.90
11142;DHT22;5625;50.122;19.864;2023-03-01T03:22:47;-2.20;99.90
11142;DHT22;5625;50.122;19.864;2023-03-01T03:25:15;-2.20;99.90
11142;DHT22;5625;50.122;19.864;2023-03-01T03:27:45;-2.20;99.90
11142;DHT22;5625;50.122;19.864;2023-03-01T03:30:17;-2.20;99.90
11142;DHT22;5625;50.122;19.864;2023-03-01T03:32:47;-2.20;99.90
11142;DHT22;5625;50.122;19.864;2023-03-01T03:35:19;-2.20;99.90
11142;DHT22;5625;50.122;19.864;2023-03-01T03:37:48;-2.30;99.90
11142;DHT22;5625;50.122;19.864;2023-03-01T03:40:36;-2.30;99.90
11142;DHT22;5625;50.122;19.864;2023-03-01T03:43:06;-2.30;99.90
11142;DHT22;5625;50.122;19.864;2023-03-01T03:45:36;-2.30;99.90
11142;DHT22;5625;50.122;19.864;2023-03-01T03:48:06;-2.30;99.90
11142;DHT22;5625;50.122;19.864;2023-03-01T03:50:36;-2.30;99.90
11142;DHT22;5625;50.122;19.864;2023-03-01T03:53:06;-2.30;99.90
11142;DHT22;5625;50.122;19.864;2023-03-01T03:55:35;-2.30;99.90
11142;DHT22;5625;50.122;19.864;2023-03-01T03:58:09;-2.40;99.90
11142;DHT22;5625;50.122;19.864;2023-03-01T04:00:41;-2.40;99.90
11142;DHT22;5625;50.122;19.864;2023-03-01T04:03:11;-2.40;99.90
11142;DHT22;5625;50.122;19.864;2023-03-01T04:05:40;-2.40;99.90
11142;DHT22;5625;50.122;19.864;2023-03-01T04:08:09;-2.40;99.90
11142;DHT22;5625;50.122;19.864;2023-03-01T04:10:38;-2.40;99.90
11142;DHT22;5625;50.122;19.864;2023-03-01T04:13:08;-2.40;99.90
11142;DHT22;5625;50.122;19.864;2023-03-01T04:15:38;-2.40;99.90
11142;DHT22;5625;50.122;19.864;2023-03-01T04:18:08;-2.40;99.90
11142;DHT22;5625;50.122;19.864;2023-03-01T04:20:36;-2.50;99.90
11142;DHT22;5625;50.122;19.864;2023-03-01T04:23:06;-2.50;99.90
11142;DHT22;5625;50.122;19.864;2023-03-01T04:25:45;-2.50;99.90
11142;DHT22;5625;50.122;19.864;2023-03-01T04:28:16;-2.50;99.90
11142;DHT22;5625;50.122;19.864;2023-03-01T04:30:45;-2.50;99.90
11142;DHT22;5625;50.122;19.864;2023-03-01T04:33:13;-2.50;99.90
11142;DHT22;5625;50.122;19.864;2023-03-01T04:35:41;-2.50;99.90
11142;DHT22;5625;50.122;19.864;2023-03-01T04:38:10;-2.50;99.90
11142;DHT22;5625;50.122;19.864;2023-03-01T04:40:38;-2.50;99.90
11142;DHT22;5625;50.122;19.864;2023-03-01T04:43:06;-2.50;99.90
11142;DHT22;5625;50.122;19.864;2023-03-01T04:45:34;-2.60;99.90
11142;DHT22;5625;50.122;19.864;2023-03-01T04:48:06;-2.50;99.90
11142;DHT22;5625;50.122;19.864;2023-03-01T04:50:35;-2.60;99.90
11142;DHT22;5625;50.122;19.864;2023-03-01T04:53:03;-2.60;99.90
11142;DHT22;5625;50.122;19.864;2023-03-01T04:55:31;-2.60;99.90
11142;DHT22;5625;50.122;19.864;2023-03-01T04:57:59;-2.60;99.90
11142;DHT22;5625;50.122;19.864;2023-03-01T05:00:27;-2.60;99.90
11142;DHT22;5625;50.122;19.864;2023-03-01T05:02:56;-2.70;99.90
11142;DHT22;5625;50.122;19.864;2023-03-01T05:05:31;-2.70;99.90
11142;DHT22;5625;50.122;19.864;2023-03-01T05:08:01;-2.70;99.90
11142;DHT22;5625;50.122;19.864;2023-03-01T05:10:31;-2.70;99.90
11142;DHT22;5625;50.122;19.864;2023-03-01T05:13:02;-2.70;99.90
11142;DHT22;5625;50.122;19.864;2023-03-01T05:15:31;-2.70;99.90
11142;DHT22;5625;50.122;19.864;2023-03-01T05:18:00;-2.70;99.90
11142;DHT22;5625;50.122;19.864;2023-03-01T05:20:30;-2.70;99.90
11142;DHT22;5625;50.122;19.864;2023-03-01T05:22:59;-2.80;99.90
11142;DHT22;5625;50.122;19.864;2023-03-01T05:25:32;-2.80;99.90
11142;DHT22;5625;50.122;19.864;2023-03-01T05:28:01;-2.80;99.90
11142;DHT22;5625;50.122;19.864;2023-03-01T05:30:31;-2.80;99.90
11142;DHT22;5625;50.122;19.864;2023-03-01T05:33:00;-2.80;99.90
11142;DHT22;5625;50.122;19.864;2023-03-01T05:35:32;-2.80;99.90
11142;DHT22;5625;50.122;19.864;2023-03-01T05:38:01;-2.80;99.90
11142;DHT22;5625;50.122;19.864;2023-03-01T05:40:29;-2.80;99.90
11142;DHT22;5625;50.122;19.864;2023-03-01T05:42:57;-2.80;99.90
11142;DHT22;5625;50.122;19.864;2023-03-01T05:45:26;-2.80;99.90
11142;DHT22;5625;50.122;19.864;2023-03-01T05:47:55;-2.80;99.90
11142;DHT22;5625;50.122;19.864;2023-03-01T05:50:24;-2.80;99.90
11142;DHT22;5625;50.122;19.864;2023-03-01T05:52:59;-2.70;99.90
11142;DHT22;5625;50.122;19.864;2023-03-01T05:55:29;-2.70;99.90
11142;DHT22;5625;50.122;19.864;2023-03-01T05:57:58;-2.70;99.90
11142;DHT22;5625;50.122;19.864;2023-03-01T06:00:29;-2.70;99.90
11142;DHT22;5625;50.122;19.864;2023-03-01T06:03:00;-2.70;99.90
11142;DHT22;5625;50.122;19.864;2023-03-01T06:05:30;-2.70;99.90
11142;DHT22;5625;50.122;19.864;2023-03-01T06:08:02;-2.70;99.90
11142;DHT22;5625;50.122;19.864;2023-03-01T06:10:30;-2.70;99.90
11142;DHT22;5625;50.122;19.864;2023-03-01T06:12:58;-2.70;99.90
11142;DHT22;5625;50.122;19.864;2023-03-01T06:15:27;-2.60;99.90
11142;DHT22;5625;50.122;19.864;2023-03-01T06:17:55;-2.60;99.90
11142;DHT22;5625;50.122;19.864;2023-03-01T06:20:27;-2.60;99.90
11142;DHT22;5625;50.122;19.864;2023-03-01T06:22:55;-2.60;99.90
11142;DHT22;5625;50.122;19.864;2023-03-01T06:25:26;-2.60;99.90
11142;DHT22;5625;50.122;19.864;2023-03-01T06:27:55;-2.50;99.90
11142;DHT22;5625;50.122;19.864;2023-03-01T06:30:24;-2.50;99.90
11142;DHT22;5625;50.122;19.864;2023-03-01T06:32:52;-2.50;99.90
11142;DHT22;5625;50.122;19.864;2023-03-01T06:35:27;-2.50;99.90
11142;DHT22;5625;50.122;19.864;2023-03-01T06:37:58;-2.40;99.90
11142;DHT22;5625;50.122;19.864;2023-03-01T06:40:28;-2.40;99.90
11142;DHT22;5625;50.122;19.864;2023-03-01T06:42:56;-2.40;99.90
11142;DHT22;5625;50.122;19.864;2023-03-01T06:45:26;-2.30;99.90
11142;DHT22;5625;50.122;19.864;2023-03-01T06:48:01;-2.30;99.90
11142;DHT22;5625;50.122;19.864;2023-03-01T06:50:31;-2.30;99.90
11142;DHT22;5625;50.122;19.864;2023-03-01T06:52:59;-2.20;99.90
11142;DHT22;5625;50.122;19.864;2023-03-01T06:55:29;-2.20;99.90
11142;DHT22;5625;50.122;19.864;2023-03-01T06:57:58;-2.10;99.90
11142;DHT22;5625;50.122;19.864;2023-03-01T07:00:27;-2.00;99.90
11142;DHT22;5625;50.122;19.864;2023-03-01T07:02:59;-2.00;99.90
11142;DHT22;5625;50.122;19.864;2023-03-01T07:05:29;-1.90;99.90
11142;DHT22;5625;50.122;19.864;2023-03-01T07:07:57;-1.30;99.90
11142;DHT22;5625;50.122;19.864;2023-03-01T07:10:25;-0.10;99.90
11142;DHT22;5625;50.122;19.864;2023-03-01T07:12:56;1.00;76.00
11142;DHT22;5625;50.122;19.864;2023-03-01T07:15:24;2.00;30.00
11142;DHT22;5625;50.122;19.864;2023-03-01T07:17:52;2.70;1.00
11142;DHT22;5625;50.122;19.864;2023-03-01T07:20:21;3.50;1.00
11142;DHT22;5625;50.122;19.864;2023-03-01T07:22:51;4.40;1.00
11142;DHT22;5625;50.122;19.864;2023-03-01T07:25:19;5.10;1.00
11142;DHT22;5625;50.122;19.864;2023-03-01T07:27:49;5.60;99.90
11142;DHT22;5625;50.122;19.864;2023-03-01T07:30:22;6.20;99.90
11142;DHT22;5625;50.122;19.864;2023-03-01T07:32:52;6.50;99.90
11142;DHT22;5625;50.122;19.864;2023-03-01T07:35:21;6.90;99.90
11142;DHT22;5625;50.122;19.864;2023-03-01T07:37:50;7.40;1.00
11142;DHT22;5625;50.122;19.864;2023-03-01T07:40:18;7.60;1.00
11142;DHT22;5625;50.122;19.864;2023-03-01T07:42:46;8.00;99.90
11142;DHT22;5625;50.122;19.864;2023-03-01T07:45:14;8.40;42.40
11142;DHT22;5625;50.122;19.864;2023-03-01T07:47:45;8.40;99.90
11142;DHT22;5625;50.122;19.864;2023-03-01T07:50:13;8.50;99.90
11142;DHT22;5625;50.122;19.864;2023-03-01T07:52:44;8.90;1.00
11142;DHT22;5625;50.122;19.864;2023-03-01T07:55:12;9.20;94.80
11142;DHT22;5625;50.122;19.864;2023-03-01T07:57:40;9.50;99.90
11142;DHT22;5625;50.122;19.864;2023-03-01T08:00:11;10.10;99.90
11142;DHT22;5625;50.122;19.864;2023-03-01T08:02:40;10.60;99.90
11142;DHT22;5625;50.122;19.864;2023-03-01T08:05:10;10.60;99.90
11142;DHT22;5625;50.122;19.864;2023-03-01T08:07:38;10.70;99.90
11142;DHT22;5625;50.122;19.864;2023-03-01T08:10:07;11.00;1.00
11142;DHT22;5625;50.122;19.864;2023-03-01T08:12:35;11.10;99.90
11142;DHT22;5625;50.122;19.864;2023-03-01T08:15:03;11.40;89.20
11142;DHT22;5625;50.122;19.864;2023-03-01T08:17:35;11.40;1.00
11142;DHT22;5625;50.122;19.864;2023-03-01T08:20:03;11.70;1.00
11142;DHT22;5625;50.122;19.864;2023-03-01T08:22:34;11.70;99.90
11142;DHT22;5625;50.122;19.864;2023-03-01T08:25:02;12.00;99.90
11142;DHT22;5625;50.122;19.864;2023-03-01T08:27:33;12.30;99.90
11142;DHT22;5625;50.122;19.864;2023-03-01T08:30:02;12.40;99.90
11142;DHT22;5625;50.122;19.864;2023-03-01T08:32:35;12.60;99.90
11142;DHT22;5625;50.122;19.864;2023-03-01T08:35:04;12.80;99.90
11142;DHT22;5625;50.122;19.864;2023-03-01T08:37:34;12.90;68.80
11142;DHT22;5625;50.122;19.864;2023-03-01T08:40:02;12.90;37.30
11142;DHT22;5625;50.122;19.864;2023-03-01T08:42:33;13.00;1.00
11142;DHT22;5625;50.122;19.864;2023-03-01T08:45:01;13.20;1.00
11142;DHT22;5625;50.122;19.864;2023-03-01T08:47:30;13.30;1.00
11142;DHT22;5625;50.122;19.864;2023-03-01T08:49:58;13.20;1.00
11142;DHT22;5625;50.122;19.864;2023-03-01T08:52:26;13.50;1.00
11142;DHT22;5625;50.122;19.864;2023-03-01T08:54:56;13.70;1.00
11142;DHT22;5625;50.122;19.864;2023-03-01T08:57:24;13.90;1.00
11142;DHT22;5625;50.122;19.864;2023-03-01T08:59:52;14.10;99.90
11142;DHT22;5625;50.122;19.864;2023-03-01T09:02:22;14.00;99.90
11142;DHT22;5625;50.122;19.864;2023-03-01T09:04:50;14.20;99.90
11142;DHT22;5625;50.122;19.864;2023-03-01T09:07:18;14.40;99.90
11142;DHT22;5625;50.122;19.864;2023-03-01T09:09:47;14.30;99.90
11142;DHT22;5625;50.122;19.864;2023-03-01T09:12:16;14.40;99.90
11142;DHT22;5625;50.122;19.864;2023-03-01T09:14:47;14.50;99.90
11142;DHT22;5625;50.122;19.864;2023-03-01T09:17:15;14.60;99.90
11142;DHT22;5625;50.122;19.864;2023-03-01T09:19:45;14.80;99.90
11142;DHT22;5625;50.122;19.864;2023-03-01T09:22:13;14.80;99.90
11142;DHT22;5625;50.122;19.864;2023-03-01T09:24:41;14.80;99.90
11142;DHT22;5625;50.122;19.864;2023-03-01T09:27:09;14.80;99.90
11142;DHT22;5625;50.122;19.864;2023-03-01T09:29:41;14.70;99.90
11142;DHT22;5625;50.122;19.864;2023-03-01T09:32:09;14.60;99.90
11142;DHT22;5625;50.122;19.864;2023-03-01T09:34:37;14.50;99.90
11142;DHT22;5625;50.122;19.864;2023-03-01T09:37:21;14.60;99.90
11142;DHT22;5625;50.122;19.864;2023-03-01T09:39:49;14.50;99.90
11142;DHT22;5625;50.122;19.864;2023-03-01T09:42:17;14.60;99.90
11142;DHT22;5625;50.122;19.864;2023-03-01T09:44:49;14.50;99.90
11142;DHT22;5625;50.122;19.864;2023-03-01T09:47:20;14.60;99.90
11142;DHT22;5625;50.122;19.864;2023-03-01T09:49:58;14.60;99.90
11142;DHT22;5625;50.122;19.864;2023-03-01T09:52:33;14.80;99.90
11142;DHT22;5625;50.122;19.864;2023-03-01T09:55:09;14.60;99.90
11142;DHT22;5625;50.122;19.864;2023-03-01T09:57:43;14.60;99.90
11142;DHT22;5625;50.122;19.864;2023-03-01T10:00:23;14.70;99.90
11142;DHT22;5625;50.122;19.864;2023-03-01T10:02:58;14.80;99.90
11142;DHT22;5625;50.122;19.864;2023-03-01T10:05:36;15.00;99.90
11142;DHT22;5625;50.122;19.864;2023-03-01T10:08:26;15.20;99.90
11142;DHT22;5625;50.122;19.864;2023-03-01T10:10:58;15.30;99.90
11142;DHT22;5625;50.122;19.864;2023-03-01T10:13:31;15.20;99.90
11142;DHT22;5625;50.122;19.864;2023-03-01T10:16:09;15.20;98.30
11142;DHT22;5625;50.122;19.864;2023-03-01T10:18:38;15.00;95.30
11142;DHT22;5625;50.122;19.864;2023-03-01T10:21:14;15.00;94.00
11142;DHT22;5625;50.122;19.864;2023-03-01T10:23:42;15.10;93.70
11142;DHT22;5625;50.122;19.864;2023-03-01T10:26:20;14.90;91.50
11142;DHT22;5625;50.122;19.864;2023-03-01T10:28:57;14.90;87.70
11142;DHT22;5625;50.122;19.864;2023-03-01T10:31:38;15.10;89.90
11142;DHT22;5625;50.122;19.864;2023-03-01T10:34:13;15.30;90.90
11142;DHT22;5625;50.122;19.864;2023-03-01T10:36:42;15.10;86.30
11142;DHT22;5625;50.122;19.864;2023-03-01T10:39:15;14.90;81.60
11142;DHT22;5625;50.122;19.864;2023-03-01T10:41:56;14.70;80.00
11142;DHT22;5625;50.122;19.864;2023-03-01T10:44:40;14.40;78.10
11142;DHT22;5625;50.122;19.864;2023-03-01T10:47:15;14.10;81.70
11142;DHT22;5625;50.122;19.864;2023-03-01T10:50:00;13.60;83.80
11142;DHT22;5625;50.122;19.864;2023-03-01T10:52:34;13.30;87.80
11142;DHT22;5625;50.122;19.864;2023-03-01T10:55:19;12.40;92.10
11142;DHT22;5625;50.122;19.864;2023-03-01T10:58:07;12.00;99.90
11142;DHT22;5625;50.122;19.864;2023-03-01T11:00:46;11.70;99.90
11142;DHT22;5625;50.122;19.864;2023-03-01T11:03:18;11.40;99.90
11142;DHT22;5625;50.122;19.864;2023-03-01T11:05:54;11.10;99.90
11142;DHT22;5625;50.122;19.864;2023-03-01T11:08:40;11.00;99.90
11142;DHT22;5625;50.122;19.864;2023-03-01T11:11:22;10.70;99.90
11142;DHT22;5625;50.122;19.864;2023-03-01T11:13:54;10.60;99.90
11142;DHT22;5625;50.122;19.864;2023-03-01T11:16:29;10.40;1.00
11142;DHT22;5625;50.122;19.864;2023-03-01T11:19:03;10.20;1.00
11142;DHT22;5625;50.122;19.864;2023-03-01T11:21:35;10.00;1.00
11142;DHT22;5625;50.122;19.864;2023-03-01T11:24:06;9.80;1.00
11142;DHT22;5625;50.122;19.864;2023-03-01T11:26:40;9.50;1.00
11142;DHT22;5625;50.122;19.864;2023-03-01T11:29:16;9.30;32.80
11142;DHT22;5625;50.122;19.864;2023-03-01T11:31:45;9.10;91.80
11142;DHT22;5625;50.122;19.864;2023-03-01T11:34:36;8.90;55.40
11142;DHT22;5625;50.122;19.864;2023-03-01T11:37:16;8.80;99.90
11142;DHT22;5625;50.122;19.864;2023-03-01T11:39:55;8.80;99.90
11142;DHT22;5625;50.122;19.864;2023-03-01T11:42:35;8.80;99.90
11142;DHT22;5625;50.122;19.864;2023-03-01T11:45:10;8.70;99.90
11142;DHT22;5625;50.122;19.864;2023-03-01T11:47:55;8.50;99.90
11142;DHT22;5625;50.122;19.864;2023-03-01T11:50:37;8.30;99.90
11142;DHT22;5625;50.122;19.864;2023-03-01T11:56:11;8.20;1.00
11142;DHT22;5625;50.122;19.864;2023-03-01T11:58:55;8.30;1.00
11142;DHT22;5625;50.122;19.864;2023-03-01T12:01:32;8.30;1.00
11142;DHT22;5625;50.122;19.864;2023-03-01T12:04:23;8.30;73.50
11142;DHT22;5625;50.122;19.864;2023-03-01T12:07:00;8.30;4.20
11142;DHT22;5625;50.122;19.864;2023-03-01T12:09:50;8.10;1.00
11142;DHT22;5625;50.122;19.864;2023-03-01T12:12:34;8.00;99.90
11142;DHT22;5625;50.122;19.864;2023-03-01T12:15:33;7.70;99.90
11142;DHT22;5625;50.122;19.864;2023-03-01T12:18:23;7.80;21.70
11142;DHT22;5625;50.122;19.864;2023-03-01T12:21:03;7.90;99.90
11142;DHT22;5625;50.122;19.864;2023-03-01T12:26:45;7.80;99.90
11142;DHT22;5625;50.122;19.864;2023-03-01T12:29:25;7.80;99.90
11142;DHT22;5625;50.122;19.864;2023-03-01T12:35:11;7.70;82.30
11142;DHT22;5625;50.122;19.864;2023-03-01T12:37:54;7.70;99.90
11142;DHT22;5625;50.122;19.864;2023-03-01T12:40:53;7.70;11.20
11142;DHT22;5625;50.122;19.864;2023-03-01T12:43:36;7.80;1.00
11142;DHT22;5625;50.122;19.864;2023-03-01T12:46:27;7.90;99.90
11142;DHT22;5625;50.122;19.864;2023-03-01T12:49:05;8.00;99.90
11142;DHT22;5625;50.122;19.864;2023-03-01T12:51:36;8.10;99.90
11142;DHT22;5625;50.122;19.864;2023-03-01T12:54:13;8.20;99.90
11142;DHT22;5625;50.122;19.864;2023-03-01T12:56:42;8.20;99.90
11142;DHT22;5625;50.122;19.864;2023-03-01T12:59:24;8.00;99.90
11142;DHT22;5625;50.122;19.864;2023-03-01T13:01:59;8.00;99.90
11142;DHT22;5625;50.122;19.864;2023-03-01T13:04:45;7.90;23.80
11142;DHT22;5625;50.122;19.864;2023-03-01T13:07:28;7.80;1.00
11142;DHT22;5625;50.122;19.864;2023-03-01T13:10:06;7.80;1.00
11142;DHT22;5625;50.122;19.864;2023-03-01T13:12:46;7.70;1.00
11142;DHT22;5625;50.122;19.864;2023-03-01T13:15:31;7.80;1.00
11142;DHT22;5625;50.122;19.864;2023-03-01T13:18:00;7.80;99.90
11142;DHT22;5625;50.122;19.864;2023-03-01T13:20:34;7.90;99.90
11142;DHT22;5625;50.122;19.864;2023-03-01T13:23:24;7.90;99.90
11142;DHT22;5625;50.122;19.864;2023-03-01T13:26:08;7.80;99.90
11142;DHT22;5625;50.122;19.864;2023-03-01T13:34:44;7.60;99.90
11142;DHT22;5625;50.122;19.864;2023-03-01T13:37:24;7.50;99.90
11142;DHT22;5625;50.122;19.864;2023-03-01T13:40:02;7.50;1.00
11142;DHT22;5625;50.122;19.864;2023-03-01T13:42:41;7.50;1.00
11142;DHT22;5625;50.122;19.864;2023-03-01T13:45:34;7.40;7.00
11142;DHT22;5625;50.122;19.864;2023-03-01T13:48:10;7.40;58.90
11142;DHT22;5625;50.122;19.864;2023-03-01T13:50:47;7.40;99.90
11142;DHT22;5625;50.122;19.864;2023-03-01T13:53:18;7.30;99.90
11142;DHT22;5625;50.122;19.864;2023-03-01T13:55:49;7.30;99.90
11142;DHT22;5625;50.122;19.864;2023-03-01T13:58:24;7.30;99.90
11142;DHT22;5625;50.122;19.864;2023-03-01T14:00:57;7.20;99.90
11142;DHT22;5625;50.122;19.864;2023-03-01T14:03:26;7.20;99.90
11142;DHT22;5625;50.122;19.864;2023-03-01T14:06:02;7.20;99.90
11142;DHT22;5625;50.122;19.864;2023-03-01T14:08:41;7.10;99.90
11142;DHT22;5625;50.122;19.864;2023-03-01T14:14:42;7.10;99.90
11142;DHT22;5625;50.122;19.864;2023-03-01T14:17:43;7.00;99.90
11142;DHT22;5625;50.122;19.864;2023-03-01T14:20:18;6.90;63.80
11142;DHT22;5625;50.122;19.864;2023-03-01T14:22:50;6.80;77.70
11142;DHT22;5625;50.122;19.864;2023-03-01T14:25:26;6.80;94.40
11142;DHT22;5625;50.122;19.864;2023-03-01T14:28:00;6.80;99.90
11142;DHT22;5625;50.122;19.864;2023-03-01T14:30:34;6.70;99.90
11142;DHT22;5625;50.122;19.864;2023-03-01T14:33:06;6.80;99.90
11142;DHT22;5625;50.122;19.864;2023-03-01T14:35:36;6.80;1.00
11142;DHT22;5625;50.122;19.864;2023-03-01T14:38:05;6.80;99.90
11142;DHT22;5625;50.122;19.864;2023-03-01T14:40:35;6.80;99.90
11142;DHT22;5625;50.122;19.864;2023-03-01T14:43:10;6.90;1.00
11142;DHT22;5625;50.122;19.864;2023-03-01T14:45:39;6.90;1.00
11142;DHT22;5625;50.122;19.864;2023-03-01T14:48:07;6.90;1.00
11142;DHT22;5625;50.122;19.864;2023-03-01T14:50:40;6.90;1.00
11142;DHT22;5625;50.122;19.864;2023-03-01T14:53:17;7.00;1.00
11142;DHT22;5625;50.122;19.864;2023-03-01T14:55:48;7.00;99.90
11142;DHT22;5625;50.122;19.864;2023-03-01T14:58:19;7.00;99.90
11142;DHT22;5625;50.122;19.864;2023-03-01T15:00:50;7.00;99.90
11142;DHT22;5625;50.122;19.864;2023-03-01T15:03:24;7.00;99.90
11142;DHT22;5625;50.122;19.864;2023-03-01T15:05:54;6.90;99.90
11142;DHT22;5625;50.122;19.864;2023-03-01T15:08:25;6.80;99.90
11142;DHT22;5625;50.122;19.864;2023-03-01T15:11:03;6.80;1.00
11142;DHT22;5625;50.122;19.864;2023-03-01T15:13:35;6.80;70.20
11142;DHT22;5625;50.122;19.864;2023-03-01T15:16:06;6.80;99.90
11142;DHT22;5625;50.122;19.864;2023-03-01T15:18:36;6.80;99.90
11142;DHT22;5625;50.122;19.864;2023-03-01T15:21:09;6.80;1.00
11142;DHT22;5625;50.122;19.864;2023-03-01T15:23:39;6.70;21.70
11142;DHT22;5625;50.122;19.864;2023-03-01T15:26:22;6.70;1.00
11142;DHT22;5625;50.122;19.864;2023-03-01T15:28:55;6.60;1.00
11142;DHT22;5625;50.122;19.864;2023-03-01T15:31:28;6.60;99.90
11142;DHT22;5625;50.122;19.864;2023-03-01T15:34:21;6.60;99.90
11142;DHT22;5625;50.122;19.864;2023-03-01T15:36:51;6.40;99.90
11142;DHT22;5625;50.122;19.864;2023-03-01T15:39:34;6.40;99.90
11142;DHT22;5625;50.122;19.864;2023-03-01T15:42:07;6.50;99.90
11142;DHT22;5625;50.122;19.864;2023-03-01T15:44:39;6.40;1.00
11142;DHT22;5625;50.122;19.864;2023-03-01T15:47:26;6.30;99.90
11142;DHT22;5625;50.122;19.864;2023-03-01T15:49:55;6.30;99.90
11142;DHT22;5625;50.122;19.864;2023-03-01T15:52:27;6.20;99.90
11142;DHT22;5625;50.122;19.864;2023-03-01T15:55:03;6.20;99.90
11142;DHT22;5625;50.122;19.864;2023-03-01T15:57:32;6.10;1.00
11142;DHT22;5625;50.122;19.864;2023-03-01T16:00:00;6.10;99.90
11142;DHT22;5625;50.122;19.864;2023-03-01T16:02:29;6.10;1.00
11142;DHT22;5625;50.122;19.864;2023-03-01T16:04:57;6.00;1.00
11142;DHT22;5625;50.122;19.864;2023-03-01T16:07:25;5.90;46.60
11142;DHT22;5625;50.122;19.864;2023-03-01T16:09:54;5.90;99.90
11142;DHT22;5625;50.122;19.864;2023-03-01T16:12:25;5.80;1.00
11142;DHT22;5625;50.122;19.864;2023-03-01T16:14:53;5.70;99.90
11142;DHT22;5625;50.122;19.864;2023-03-01T16:17:21;5.70;99.90
11142;DHT22;5625;50.122;19.864;2023-03-01T16:19:49;5.60;97.50
11142;DHT22;5625;50.122;19.864;2023-03-01T16:22:17;5.60;26.40
11142;DHT22;5625;50.122;19.864;2023-03-01T16:24:52;5.50;43.40
11142;DHT22;5625;50.122;19.864;2023-03-01T16:27:20;5.50;44.60
11142;DHT22;5625;50.122;19.864;2023-03-01T16:29:49;5.40;99.90